OAKB/KBL METAR and TAF weather

Enter ICAO airport designator
Station Type Date Time Source
OAKB METAR 2018/12/10 07:50 UTC NOAA

OAKB 100750Z 20008KT 9999 FEW060 09/M05 Q1016 NOSIG RMK A3002 BLU BLU


Station Type Date Time Source
OAKB Decoded METAR 2018/12/10 07:50 UTC NOAA

Kabul Airport, Afghanistan (OAKB) 34-38N 069-12E
Dec 10, 2018 - 02:50 AM EST / 2018.12.10 0750 UTC
Wind: from the SSW (200 degrees) at 9 MPH (8 KT):0
Visibility: greater than 7 mile(s):0
Sky conditions: mostly clear
Temperature: 48 F (9 C)
Dew Point: 23 F (-5 C)
Relative Humidity: 36%
Pressure (altimeter): 30.00 in. Hg (1016 hPa)
ob: OAKB 100750Z 20008KT 9999 FEW060 09/M05 Q1016 NOSIG RMK A3002 BLU BLU
cycle: 8

Station Type Date Time Source
OAKB TAF 2018/12/10 06:05 UTC NOAA

TAF OAKB 100505Z 1006/1106 VRB02KT 3000 BR NSC
BECMG 1006/1009 6000 NSW
BECMG 1011/1013 9000
BECMG 1014/1016 VRB02KT 3000 FU
BECMG 1018/1020 1200 BR PROB40
TEMPO 1101/1105 0800 FZFG


Example: see airport list